M I D A S
Marine Information and Data Acquisition System
Tripno 796 of the Zeeleeuw from 2004-10-26 06:30:00 to 2004-10-26 17:40:00
Back to CruiseResearch ActivitiesStationsMapUnderway DataData graphs

EquipmentUnitsComment
TimeDGPSUTC
LatitudeDGPSDM.mWGS84
LongitudeDGPSDM.mWGS84
HeadingGyrodeg 
SOGDGPSknotsSpeed over ground
COGDGPSdegCourse over ground
DepthEcho soundermeters200 kHz
Missing or incorrect values are displayed as -999
Navigation data collected by the RV Zeeleeuw from 2004-10-26 06:30:00 to 2004-10-26 17:40:00
                                                                                    Next 1000 lines
Time Latitude Longitude Heading SOG COG Depth
2004-10-26 06:30:11 51°13.596 2°56.113 126.5   150 7.9
2004-10-26 06:30:15 51°13.596 2°56.113 126.6   150 8
2004-10-26 06:30:19 51°13.596 2°56.113 126.6   259 7.9
2004-10-26 06:30:26 51°13.596 2°56.112 126.6   248 7.9
2004-10-26 06:30:30 51°13.596 2°56.112 126.6   235 7.9
2004-10-26 06:30:36 51°13.596 2°56.112 126.4   224 7.9
2004-10-26 06:30:41 51°13.596 2°56.112 126.2   239 7.9
2004-10-26 06:30:45 51°13.596 2°56.112 126.2   235 8
2004-10-26 06:30:50 51°13.596 2°56.112 126.1   230 7.9
2004-10-26 06:30:56 51°13.596 2°56.112 126   212 7.9
2004-10-26 06:30:58 51°13.596 2°56.112 125.9   241 7.8
2004-10-26 06:31:06 51°13.597 2°56.112 125.9   241 7.8
2004-10-26 06:31:10 51°13.596 2°56.112 125.8   40 8
2004-10-26 06:31:14 51°13.596 2°56.112 125.8   37 8
2004-10-26 06:31:20 51°13.596 2°56.112 125.8   37 8
2004-10-26 06:31:26 51°13.596 2°56.112 125.8   58 7.9
2004-10-26 06:31:31 51°13.596 2°56.112 125.8   119 8
2004-10-26 06:31:36 51°13.596 2°56.112 126   50 7.9
2004-10-26 06:31:40 51°13.596 2°56.112 126.1   197 7.9
2004-10-26 06:31:44 51°13.596 2°56.112 126.2   93 7.9
2004-10-26 06:31:51 51°13.596 2°56.112 126.2   142 7.9
2004-10-26 06:31:55 51°13.596 2°56.112 126.2   19 7.9
2004-10-26 06:32:00 51°13.595 2°56.112 126.2   220 7.9
2004-10-26 06:32:04 51°13.595 2°56.112 126.2   220 7.9
2004-10-26 06:32:11 51°13.596 2°56.112 126.2   57 8
2004-10-26 06:32:15 51°13.596 2°56.112 126.2   57 7.9
2004-10-26 06:32:18 51°13.596 2°56.112 126.1   99 7.9
2004-10-26 06:32:26 51°13.596 2°56.112 125.8   311 7.9
2004-10-26 06:32:33 51°13.597 2°56.112 125.7   344 7.9
2004-10-26 06:32:38 51°13.597 2°56.112 125.6   359 7.9
2004-10-26 06:32:43 51°13.597 2°56.112 125.5   35 7.9
2004-10-26 06:32:57 51°13.597 2°56.112 125.2   43 7.9
2004-10-26 06:33:00 51°13.597 2°56.112 125.1   162 7.9
2004-10-26 06:33:06 51°13.597 2°56.112 125.1   163 7.9
2004-10-26 06:33:10 51°13.597 2°56.112 125.1   169 7.9
2004-10-26 06:33:17 51°13.596 2°56.112 125.1   184 7.9
2004-10-26 06:33:20 51°13.596 2°56.112 125.2   86 7.9
2004-10-26 06:33:26 51°13.596 2°56.112 125.2   85 7.9
2004-10-26 06:33:30 51°13.596 2°56.112 125.2   115 5.8
2004-10-26 06:33:36 51°13.596 2°56.112 125.3   133 7.8
2004-10-26 06:33:42 51°13.597 2°56.112 125.4   142 7.9
2004-10-26 06:33:46 51°13.597 2°56.112 125.4   100 7.9
2004-10-26 06:33:50 51°13.597 2°56.112 125.5   116 7.9
2004-10-26 06:33:55 51°13.597 2°56.112 125.5   122 7.9
2004-10-26 06:34:02 51°13.597 2°56.112 125.6   119 7.9
2004-10-26 06:34:07 51°13.597 2°56.112 125.6   186 5.8
2004-10-26 06:34:11 51°13.597 2°56.113 125.6   186 8
2004-10-26 06:34:14 51°13.597 2°56.112 125.6   139 7.9
2004-10-26 06:34:26 51°13.597 2°56.112 125.6   259 7.9
2004-10-26 06:34:30 51°13.597 2°56.112 125.6   197 5.8
2004-10-26 06:34:40 51°13.596 2°56.112 125.6   182 -999
2004-10-26 06:34:46 51°13.596 2°56.112 125.6   171 7.9
2004-10-26 06:34:51 51°13.596 2°56.112 125.6   177 7.9
2004-10-26 06:34:55 51°13.596 2°56.112 125.6   131 8.1
2004-10-26 06:34:59 51°13.597 2°56.113 125.6   149 7.9
2004-10-26 06:35:03 51°13.597 2°56.113 125.6   147 7.9
2004-10-26 06:35:16 51°13.598 2°56.113 125.6   216 7.9
2004-10-26 06:35:20 51°13.598 2°56.113 125.7   337 7.9
2004-10-26 06:35:26 51°13.597 2°56.112 125.7   225 7.9
2004-10-26 06:35:31 51°13.596 2°56.112 125.7   239 5.8
2004-10-26 06:35:36 51°13.595 2°56.112 125.7   330 7.9
2004-10-26 06:35:38 51°13.595 2°56.112 125.7   256 7.9
2004-10-26 06:35:46 51°13.595 2°56.112 125.7   214 8
2004-10-26 06:35:50 51°13.595 2°56.112 125.7   237 7.9
2004-10-26 06:35:54 51°13.595 2°56.112 125.7   219 5.8
2004-10-26 06:36:00 51°13.596 2°56.112 125.7   226 7.9
2004-10-26 06:36:06 51°13.596 2°56.112 125.7   212 7.9
2004-10-26 06:36:11 51°13.596 2°56.112 125.6   195 7.9
2004-10-26 06:36:14 51°13.596 2°56.112 125.6   184 8
2004-10-26 06:36:24 51°13.595 2°56.112 125.6   184 7.9
2004-10-26 06:36:29 51°13.595 2°56.112 125.6   162 7.9
2004-10-26 06:36:34 51°13.595 2°56.113 125.7   150 8
2004-10-26 06:36:38 51°13.595 2°56.113 125.9   144 7.9
2004-10-26 06:36:47 51°13.594 2°56.113 126.1   144 7.9
2004-10-26 06:36:52 51°13.594 2°56.113 126.2   55 8.1
2004-10-26 06:36:58 51°13.594 2°56.113 126.2   66 8
2004-10-26 06:37:03 51°13.594 2°56.113 126.2   100 7.9
2004-10-26 06:37:06 51°13.594 2°56.113 126.2   100 8
2004-10-26 06:37:10 51°13.594 2°56.113 126.2   224 8
2004-10-26 06:37:18 51°13.594 2°56.113 126.3   306 7.9
2004-10-26 06:37:26 51°13.594 2°56.113 126.3   232 7.9
2004-10-26 06:37:32 51°13.594 2°56.113 126.2   27 7.9
2004-10-26 06:37:38 51°13.594 2°56.113 125.9   341 8
2004-10-26 06:37:42 51°13.594 2°56.113 125.8   341 7.9
2004-10-26 06:37:52 51°13.594 2°56.113 125.6   341 7.9
2004-10-26 06:37:56 51°13.594 2°56.113 125.5   67 5.8
2004-10-26 06:38:02 51°13.594 2°56.113 125.5   71 7.9
2004-10-26 06:38:07 51°13.594 2°56.113 125.3   140 5.8
2004-10-26 06:38:12 51°13.594 2°56.113 125.3   123 8
2004-10-26 06:38:16 51°13.593 2°56.113 125.3   114 8
2004-10-26 06:38:22 51°13.593 2°56.113 125.3   31 8
2004-10-26 06:38:27 51°13.593 2°56.113 125.5   228 8
2004-10-26 06:38:32 51°13.593 2°56.113 125.5   106 7.9
2004-10-26 06:38:37 51°13.593 2°56.113 125.7   90 8
2004-10-26 06:38:42 51°13.592 2°56.113 125.9 0.1 198 8
2004-10-26 06:38:46 51°13.592 2°56.113 126   95 8
2004-10-26 06:38:50 51°13.592 2°56.112 126   219 7.9
2004-10-26 06:38:55 51°13.592 2°56.113 125.9   152 7.9
2004-10-26 06:39:02 51°13.593 2°56.113 125.7   219 7.9
2004-10-26 06:39:07 51°13.593 2°56.113 125.6   40 7.9
2004-10-26 06:39:12 51°13.593 2°56.113 125.6   196 7.9
2004-10-26 06:39:15 51°13.593 2°56.113 125.5   166 8
2004-10-26 06:39:22 51°13.593 2°56.113 125.5   113 8
2004-10-26 06:39:26 51°13.594 2°56.113 125.5   323 7.9
2004-10-26 06:39:31 51°13.594 2°56.113 125.5   190 8
2004-10-26 06:39:35 51°13.594 2°56.113 125.6   190 8
2004-10-26 06:39:42 51°13.593 2°56.113 125.7 0.1 107 8
2004-10-26 06:39:43 51°13.593 2°56.113 126.2 0.1 213 8
2004-10-26 06:39:55 51°13.593 2°56.113 127   65 8
2004-10-26 06:39:59 51°13.594 2°56.114 127.2   74 8
2004-10-26 06:40:06 51°13.594 2°56.114 127.2   88 7.9
2004-10-26 06:40:11 51°13.595 2°56.114 127   176 8
2004-10-26 06:40:15 51°13.596 2°56.114 126.9   64 7.9
2004-10-26 06:40:20 51°13.595 2°56.114 126.8   62 8
2004-10-26 06:40:26 51°13.595 2°56.114 126.6   152 8
2004-10-26 06:40:31 51°13.595 2°56.114 126.6   246 8
2004-10-26 06:40:36 51°13.595 2°56.114 126.7   233 8
2004-10-26 06:40:38 51°13.595 2°56.114 127   230 8
2004-10-26 06:40:46 51°13.595 2°56.113 127.1   233 8
2004-10-26 06:40:50 51°13.595 2°56.113 127.4   223 8
2004-10-26 06:40:54 51°13.596 2°56.114 127.5   49 5.8
2004-10-26 06:41:00 51°13.596 2°56.114 127.5 0.1 47 7.9
2004-10-26 06:41:06 51°13.596 2°56.114 127.5 0.1 69 7.9
2004-10-26 06:41:11 51°13.596 2°56.114 127 0.1 171 7.9
2004-10-26 06:41:14 51°13.596 2°56.114 125.9 0.1 186 8
2004-10-26 06:41:20 51°13.596 2°56.114 124.8   177 8
2004-10-26 06:41:26 51°13.596 2°56.114 123.9 0.1 196 8
2004-10-26 06:41:31 51°13.596 2°56.114 122.9   180 8.1
2004-10-26 06:41:36 51°13.596 2°56.113 122 0.1 190 8
2004-10-26 06:41:38 51°13.596 2°56.113 121.1 0.1 193 8
2004-10-26 06:41:46 51°13.596 2°56.113 120.3 0.1 190 8
2004-10-26 06:41:50 51°13.596 2°56.113 119.5 0.1 198 8
2004-10-26 06:41:54 51°13.595 2°56.113 118.8 0.1 194 8
2004-10-26 06:42:00 51°13.595 2°56.113 118 0.1 192 8.1
2004-10-26 06:42:04 51°13.595 2°56.113 116.9 0.1 192 8
2004-10-26 06:42:11 51°13.596 2°56.113 116.1 0.1 276 8
2004-10-26 06:42:14 51°13.596 2°56.112 115.4 0.4 281 8
2004-10-26 06:42:20 51°13.596 2°56.11 115.1 0.7 296 8
2004-10-26 06:42:24 51°13.597 2°56.108 115 1.1 293 7.9
2004-10-26 06:42:34 51°13.599 2°56.101 115.4 2 294 5.7
2004-10-26 06:42:41 51°13.601 2°56.095 115.9 2.2 294 -999
2004-10-26 06:42:46 51°13.603 2°56.09 116.1 2.6 295 -999
2004-10-26 06:42:51 51°13.605 2°56.084 116.1 2.8 296 -999
2004-10-26 06:42:56 51°13.606 2°56.078 115.9 2.9 296 -999
2004-10-26 06:42:59 51°13.608 2°56.075 115.4 3 294 -999
2004-10-26 06:43:06 51°13.61 2°56.066 114.7 3.1 294 -999
2004-10-26 06:43:11 51°13.612 2°56.06 114.1 3.2 293 -999
2004-10-26 06:43:16 51°13.614 2°56.053 113.7 3.3 291 -999
2004-10-26 06:43:20 51°13.615 2°56.047 113.2 3.5 291 -999
2004-10-26 06:43:26 51°13.617 2°56.038 113 3.7 290 -999
2004-10-26 06:43:30 51°13.619 2°56.031 112.9 3.8 290 -999
2004-10-26 06:43:35 51°13.62 2°56.023 113.2 3.9 289 -999
2004-10-26 06:43:39 51°13.622 2°56.016 113.7 4.1 289 -999
2004-10-26 06:43:46 51°13.625 2°56.004 114.7 4.1 289 -999
2004-10-26 06:43:51 51°13.627 2°55.996 116 4.3 291 -999
2004-10-26 06:43:54 51°13.629 2°55.99 116.8 4.3 291 -999
2004-10-26 06:44:00 51°13.632 2°55.98 117.6 4.4 293 -999
2004-10-26 06:44:06 51°13.635 2°55.969 118.2 4.5 294 -999
2004-10-26 06:44:11 51°13.638 2°55.96 118.8 4.5 294 -999
2004-10-26 06:44:14 51°13.639 2°55.955 119.1 4.5 296 -999
2004-10-26 06:44:21 51°13.643 2°55.942 119.2 4.5 296 -999
2004-10-26 06:44:26 51°13.646 2°55.933 119.3 4.5 297 -999
2004-10-26 06:44:30 51°13.648 2°55.926 119.1 4.5 297 -999
2004-10-26 06:44:36 51°13.651 2°55.916 118.6 4.4 297 -999
2004-10-26 06:44:39 51°13.653 2°55.911 118.3 4.3 297 -999
2004-10-26 06:44:46 51°13.656 2°55.899 117.4 4.2 296 -999
2004-10-26 06:44:51 51°13.659 2°55.891 116.3 4.1 295 -999
2004-10-26 06:44:56 51°13.661 2°55.882 115 4.1 294 -999
2004-10-26 06:45:00 51°13.663 2°55.876 113.3 4 292 -999
2004-10-26 06:45:06 51°13.665 2°55.866 111.8 3.2 291 -999
2004-10-26 06:45:11 51°13.667 2°55.858 110.4 3.5 290 -999
2004-10-26 06:45:16 51°13.668 2°55.85 109.2 4 289 -999
2004-10-26 06:45:18 51°13.669 2°55.846 108.2 4 288 -999
2004-10-26 06:45:26 51°13.671 2°55.832 107.2 4 287 -999
2004-10-26 06:45:31 51°13.673 2°55.824 106.2 3.9 286 -999
2004-10-26 06:45:36 51°13.674 2°55.816 105.1 3.9 285 -999
2004-10-26 06:45:40 51°13.675 2°55.809 104.3 3.8 285 -999
2004-10-26 06:45:46 51°13.677 2°55.799 103.5 3.8 284 -999
2004-10-26 06:45:51 51°13.678 2°55.791 102.9 3.8 284 -999
2004-10-26 06:45:56 51°13.679 2°55.783 101.8 3.7 284 -999
2004-10-26 06:45:59 51°13.68 2°55.778 100.7 3.6 283 -999
2004-10-26 06:46:06 51°13.681 2°55.769 99.4 3.3 282 -999
2004-10-26 06:46:11 51°13.682 2°55.763 97.5 2.4 279 -999
2004-10-26 06:46:15 51°13.683 2°55.76 94.2 1.9 279 -999
2004-10-26 06:46:19 51°13.683 2°55.758 89.7 1.3 280 12.8
2004-10-26 06:46:25 51°13.684 2°55.756 85.8 1.3 280 13
2004-10-26 06:46:30 51°13.684 2°55.756 81.5 0.3   13.1
2004-10-26 06:46:35 51°13.684 2°55.757 75.8 0.6 37 13.2
2004-10-26 06:46:40 51°13.685 2°55.758 69.4 0.9 42 13.5
2004-10-26 06:46:46 51°13.687 2°55.761 62.4 1.4 41 13.8
2004-10-26 06:46:51 51°13.689 2°55.763 54.2 1.8 38 13.9
2004-10-26 06:46:56 51°13.692 2°55.766 48.6 2.1 34 13.8
2004-10-26 06:47:00 51°13.694 2°55.768 41.6 2.3 29 13.9
2004-10-26 06:47:04 51°13.696 2°55.769 35 2 21 13.9
2004-10-26 06:47:10 51°13.699 2°55.771 30.2 1.5 22 13.9
2004-10-26 06:47:16 51°13.701 2°55.772 26.8 1.1 16 13.9
2004-10-26 06:47:19 51°13.701 2°55.772 23.1 0.6 9 13.8
2004-10-26 06:47:26 51°13.701 2°55.772 20.4 0.4 9 13.7
2004-10-26 06:47:30 51°13.701 2°55.772 17.9 0.1 210 13.7
2004-10-26 06:47:36 51°13.7 2°55.771 16.2 0.5 199 13.8
2004-10-26 06:47:42 51°13.698 2°55.771 14.9 0.8 191 13.9
2004-10-26 06:47:46 51°13.697 2°55.77 13.8 1.2 191 13.9
2004-10-26 06:47:54 51°13.694 2°55.769 12.9 0.7 193 -999
2004-10-26 06:47:58 51°13.693 2°55.769 12.9 1.1 193 -999
2004-10-26 06:48:06 51°13.693 2°55.769 11.1 0.3 195 -999
2004-10-26 06:48:10 51°13.693 2°55.769 7.9 0.6 348 -999
2004-10-26 06:48:15 51°13.695 2°55.769 3.4 0.8 347 -999
2004-10-26 06:48:19 51°13.697 2°55.768 356.8 1.5 343 -999
2004-10-26 06:48:24 51°13.7 2°55.767 351.2 2.2 344 -999
2004-10-26 06:48:30 51°13.705 2°55.763 343.6 3.2 335 -999
2004-10-26 06:48:35 51°13.71 2°55.758 337 4.3 331 14
2004-10-26 06:48:40 51°13.716 2°55.752 332.4 4.8 328 13.6
2004-10-26 06:48:44 51°13.72 2°55.746 330.9 5.3 327 12.4
2004-10-26 06:48:50 51°13.728 2°55.737 329.4 5.7 324 10.8
2004-10-26 06:48:55 51°13.736 2°55.728 328.7 6.1 324 10.9
2004-10-26 06:49:00 51°13.744 2°55.72 328.4 6.7 323 10.6
2004-10-26 06:49:04 51°13.752 2°55.713 328.3 7 324 9.1
2004-10-26 06:49:10 51°13.762 2°55.701 328.9 5.5 325 9.2
2004-10-26 06:49:15 51°13.771 2°55.692 330.1 7.8 327 9.5
2004-10-26 06:49:19 51°13.778 2°55.684 330.4 7.9 326 9.7
2004-10-26 06:49:23 51°13.786 2°55.676 330.3 8.2 328 9.5
2004-10-26 06:49:30 51°13.8 2°55.662 331.1 6.4 328 10.2
2004-10-26 06:49:35 51°13.81 2°55.653 333 8.6 330 10.7
2004-10-26 06:49:40 51°13.821 2°55.643 335 8.7 331 11
2004-10-26 06:49:44 51°13.829 2°55.636 335.4 8.8 331 10.5
2004-10-26 06:49:50 51°13.843 2°55.625 336.5 8.8 332 10.9
2004-10-26 06:49:55 51°13.853 2°55.616 337.8 9 334 10.6
2004-10-26 06:49:59 51°13.862 2°55.609 339.1 9.1 335 10.6
2004-10-26 06:50:04 51°13.874 2°55.601 340.2 9.2 336 10.4
2004-10-26 06:50:15 51°13.9 2°55.584 342 9.3 338 9.8
2004-10-26 06:50:20 51°13.914 2°55.578 342 9.3 337 9.8
2004-10-26 06:50:26 51°13.928 2°55.569 342 8.9 338 10
2004-10-26 06:50:30 51°13.937 2°55.563 342.1 8.4 338 10.2
2004-10-26 06:50:34 51°13.945 2°55.558 342.8 8.2 339 10.7
2004-10-26 06:50:40 51°13.958 2°55.551 343.3 8 339 10.7
2004-10-26 06:50:44 51°13.965 2°55.545 343.3 7.8 339 10.9
2004-10-26 06:50:51 51°13.979 2°55.535 343.3 7.7 339 11.1
2004-10-26 06:50:54 51°13.985 2°55.534 343.3 7.4 339 11.4
2004-10-26 06:50:59 51°13.994 2°55.528 343.4 7.2 339 11.6
2004-10-26 06:51:06 51°14.007 2°55.52 343.5 7.1 339 11.1
2004-10-26 06:51:10 51°14.013 2°55.516 343.4 6.9 339 11.1
2004-10-26 06:51:15 51°14.022 2°55.511 343.5 6.8 340 11.1
2004-10-26 06:51:20 51°14.031 2°55.506 344.2 6.8 340 11
2004-10-26 06:51:26 51°14.042 2°55.5 344.8 6.8 341 10.9
2004-10-26 06:51:30 51°14.049 2°55.496 344.9 6.8 340 11
2004-10-26 06:51:34 51°14.056 2°55.492 344.1 6.8 339 11
2004-10-26 06:51:40 51°14.067 2°55.485 343.7 6.8 339 11
2004-10-26 06:51:44 51°14.074 2°55.481 343.4 6.8 339 10.9
2004-10-26 06:51:51 51°14.086 2°55.473 343.4 6.9 339 10.9
2004-10-26 06:51:56 51°14.095 2°55.468 343.4 6.9 339 10.9
2004-10-26 06:51:59 51°14.1 2°55.464 342.9 7 338 10.9
2004-10-26 06:52:06 51°14.113 2°55.456 342.2 7 338 10.9
2004-10-26 06:52:11 51°14.122 2°55.45 341.2 7.1 336 10.9
2004-10-26 06:52:15 51°14.13 2°55.444 340.2 7.3 336 10.9
2004-10-26 06:52:21 51°14.141 2°55.436 339 7.6 335 10.9
2004-10-26 06:52:26 51°14.151 2°55.427 338.4 7.9 334 10.9
2004-10-26 06:52:31 51°14.161 2°55.418 338.4 8.4 333 10.9
2004-10-26 06:52:36 51°14.172 2°55.409 337.5 8.7 331 11
2004-10-26 06:52:40 51°14.18 2°55.4 334.9 9 329 11.1
2004-10-26 06:52:46 51°14.193 2°55.387 333 9.2 328 11.1
2004-10-26 06:52:51 51°14.205 2°55.376 332.3 9.6 327 11
2004-10-26 06:52:55 51°14.214 2°55.367 331.1 9.6 327 11.2
2004-10-26 06:53:00 51°14.225 2°55.353 329.2 9.9 324 11.2
2004-10-26 06:53:06 51°14.238 2°55.336 327.3 10 322 11.2
2004-10-26 06:53:11 51°14.249 2°55.321 326.1 10.2 320 10.6
2004-10-26 06:53:14 51°14.255 2°55.312 324.2 10.3 317 10.8
2004-10-26 06:53:20 51°14.267 2°55.292 320.6 10.4 314 10.7
2004-10-26 06:53:24 51°14.274 2°55.278 316.7 10.5 310 10.8
2004-10-26 06:53:31 51°14.287 2°55.253 314.5 10.6 309 10.8
2004-10-26 06:53:36 51°14.296 2°55.234 312.8 10.7 307 10.9
2004-10-26 06:53:40 51°14.303 2°55.218 310.5 10.8 305 10.8
2004-10-26 06:53:46 51°14.313 2°55.194 308.7 10.9 304 10.7
2004-10-26 06:53:50 51°14.319 2°55.178 307.7 11 303 10.8
2004-10-26 06:53:54 51°14.326 2°55.161 307.6 11.2 304 10.8
2004-10-26 06:54:00 51°14.337 2°55.137 308.6 11.2 304 10.8
2004-10-26 06:54:06 51°14.348 2°55.111 308.7 11.6 304 10.8
2004-10-26 06:54:11 51°14.357 2°55.089 308.1 11.8 304 10.6
2004-10-26 06:54:16 51°14.366 2°55.067 308.2 11.8 304 10.9
2004-10-26 06:54:20 51°14.373 2°55.05 307.7 12.1 303 11
2004-10-26 06:54:26 51°14.384 2°55.023 307.8 12.1 304 10.9
2004-10-26 06:54:34 51°14.398 2°54.986 308.1 12.3 302 11
2004-10-26 06:54:40 51°14.409 2°54.958 308.8 12.3 303 11
2004-10-26 06:54:46 51°14.421 2°54.931 311.3 12.5 305 10.9
2004-10-26 06:54:51 51°14.434 2°54.91 314.2 12.6 308 11
2004-10-26 06:54:56 51°14.445 2°54.888 316 12.8 309 10.9
2004-10-26 06:54:59 51°14.452 2°54.875 316.4 13 309 10.9
2004-10-26 06:55:06 51°14.469 2°54.844 317.1 13.1 310 10.8
2004-10-26 06:55:11 51°14.482 2°54.823 319.5 13.2 314 10.6
2004-10-26 06:55:15 51°14.493 2°54.807 323.1 13.2 317 10.5
2004-10-26 06:55:21 51°14.509 2°54.785 326.2 13.2 319 10.4
2004-10-26 06:55:26 51°14.524 2°54.766 327.6 13.3 319 10.3
2004-10-26 06:55:31 51°14.538 2°54.749 330 13.4 323 10.3
2004-10-26 06:55:36 51°14.553 2°54.731 331.5 13.4 323 10.2
2004-10-26 06:55:39 51°14.562 2°54.721 332.4 13.4 325 10.1
2004-10-26 06:55:46 51°14.584 2°54.697 332.9 13.5 324 10.1
2004-10-26 06:55:51 51°14.599 2°54.68 332.9 13.5 324 9.9
2004-10-26 06:55:56 51°14.614 2°54.662 332.4 13.5 323 9.8
2004-10-26 06:55:58 51°14.62 2°54.655 331.8 13.5 322 9.8
2004-10-26 06:56:06 51°14.643 2°54.626 331 13.5 322 9.7
2004-10-26 06:56:11 51°14.658 2°54.607 330.6 13.6 322 9.7
2004-10-26 06:56:15 51°14.67 2°54.592 330.3 13.6 322 9.8
2004-10-26 06:56:20 51°14.685 2°54.574 330.2 13.6 322 9.8
2004-10-26 06:56:26 51°14.703 2°54.552 330.4 13.6 322 9.8
2004-10-26 06:56:30 51°14.715 2°54.537 330.9 13.7 324 9.9
2004-10-26 06:56:36 51°14.734 2°54.516 331.4 13.7 324 9.9
2004-10-26 06:56:41 51°14.749 2°54.498 332 13.7 324 9.9
2004-10-26 06:56:46 51°14.765 2°54.481 332.3 13.7 324 9.7
2004-10-26 06:56:50 51°14.777 2°54.467 332.4 13.7 324 9.8
2004-10-26 06:56:56 51°14.795 2°54.445 332.4 13.7 324 9.7
2004-10-26 06:57:00 51°14.808 2°54.431 332.4 13.7 324 9.7
2004-10-26 06:57:06 51°14.826 2°54.41 332.4 13.7 324 9.6
2004-10-26 06:57:11 51°14.841 2°54.392 332.1 13.6 324 9.8
2004-10-26 06:57:15 51°14.853 2°54.378 331.9 13.6 324 9.4
2004-10-26 06:57:19 51°14.865 2°54.364 331.7 13.6 324 9.4
2004-10-26 06:57:26 51°14.886 2°54.339 331.6 13.5 323 9.3
2004-10-26 06:57:31 51°14.901 2°54.321 331.2 13.5 323 9.2
2004-10-26 06:57:34 51°14.91 2°54.31 331.1 13.5 323 9
2004-10-26 06:57:39 51°14.925 2°54.292 331.3 13.4 323 8.9
2004-10-26 06:57:46 51°14.946 2°54.268 331.6 13.4 324 8.8
2004-10-26 06:57:50 51°14.958 2°54.254 331.7 13.3 323 8.6
2004-10-26 06:57:56 51°14.976 2°54.233 331.9 13.3 323 8.6
2004-10-26 06:57:58 51°14.982 2°54.226 332 13.3 323 8.7
2004-10-26 06:58:06 51°15.006 2°54.197 331.8 13.3 323 8.8
2004-10-26 06:58:11 51°15.021 2°54.18 331.7 13.4 323 8.8
2004-10-26 06:58:15 51°15.032 2°54.165 331.7 13.4 323 8.7
2004-10-26 06:58:18 51°15.041 2°54.155 331.6 13.4 323 8.9
2004-10-26 06:58:29 51°15.074 2°54.115 331.6 13.5 323 8.9
2004-10-26 06:58:34 51°15.089 2°54.097 331.6 13.5 323 9
2004-10-26 06:58:38 51°15.101 2°54.083 331.6 13.5 323 9
2004-10-26 06:58:44 51°15.119 2°54.061 331.7 13.5 323 9
2004-10-26 06:58:48 51°15.132 2°54.047 332.1 13.6 323 9.2
2004-10-26 06:58:54 51°15.15 2°54.026 332.5 13.6 324 9.2
2004-10-26 06:58:59 51°15.165 2°54.008 332.6 13.6 324 9.3
2004-10-26 06:59:04 51°15.18 2°53.99 332.5 13.6 324 9.3
2004-10-26 06:59:08 51°15.193 2°53.976 332.5 13.6 323 9.5
2004-10-26 06:59:14 51°15.211 2°53.954 332.2 13.6 324 9.5
2004-10-26 06:59:19 51°15.226 2°53.937 332.4 13.6 324 9.6
2004-10-26 06:59:23 51°15.238 2°53.922 332.6 13.6 324 9.5
2004-10-26 06:59:28 51°15.254 2°53.905 332.7 13.6 323 9.4
2004-10-26 06:59:34 51°15.272 2°53.883 332.5 13.6 324 9.5
2004-10-26 06:59:39 51°15.287 2°53.865 332.4 13.5 324 9.6
2004-10-26 06:59:43 51°15.299 2°53.851 332.4 13.6 324 9.9
2004-10-26 06:59:48 51°15.315 2°53.834 332.8 13.6 324 9.8
2004-10-26 06:59:54 51°15.333 2°53.813 333 13.6 325 9.7
2004-10-26 06:59:58 51°15.345 2°53.799 333.1 13.6 324 9.9
2004-10-26 07:00:03 51°15.361 2°53.781 333 13.6 324 10
2004-10-26 07:00:09 51°15.379 2°53.76 332.7 13.6 324 10
2004-10-26 07:00:14 51°15.394 2°53.742 332.5 13.6 324 10.1
2004-10-26 07:00:19 51°15.41 2°53.724 332.6 13.6 324 10.3
2004-10-26 07:00:23 51°15.422 2°53.71 332.4 13.6 324 10.3
2004-10-26 07:00:27 51°15.434 2°53.695 332.2 13.6 323 10.4
2004-10-26 07:00:34 51°15.455 2°53.67 332.2 13.6 323 10.5
2004-10-26 07:00:39 51°15.47 2°53.652 332.4 13.6 324 10.6
2004-10-26 07:00:44 51°15.486 2°53.635 332.9 13.6 324 10.5
2004-10-26 07:00:48 51°15.498 2°53.621 333.1 13.5 325 10.6
2004-10-26 07:00:54 51°15.517 2°53.601 333.6 13.5 326 10.7
2004-10-26 07:00:59 51°15.533 2°53.587 336.5 13.4 332 10.8
2004-10-26 07:01:03 51°15.546 2°53.576 339.4 13.4 332 10.9
2004-10-26 07:01:08 51°15.563 2°53.564 342.1 13.4 335 11
2004-10-26 07:01:14 51°15.583 2°53.549 344 13.3 336 11.1
2004-10-26 07:01:19 51°15.6 2°53.538 345 13.3 337 11.2
2004-10-26 07:01:22 51°15.61 2°53.531 345.8 13.3 338 11.3
2004-10-26 07:01:28 51°15.631 2°53.518 346.5 13.3 339 11.2
2004-10-26 07:01:34 51°15.651 2°53.505 347.2 13.3 338 11.3
2004-10-26 07:01:39 51°15.669 2°53.495 347.5 13.3 339 11.4
2004-10-26 07:01:44 51°15.686 2°53.484 347.6 13.3 339 11.4
2004-10-26 07:01:48 51°15.699 2°53.476 347.6 13.3 338 11.4
2004-10-26 07:01:54 51°15.72 2°53.463 347.2 13.3 338 11.4
2004-10-26 07:01:59 51°15.737 2°53.452 346.8 13.3 338 11.4
2004-10-26 07:02:03 51°15.751 2°53.443 346.9 13.3 338 11.5
2004-10-26 07:02:08 51°15.768 2°53.432 347.1 13.4 338 11.5
2004-10-26 07:02:14 51°15.788 2°53.418 347 13.3 337 11.6
2004-10-26 07:02:19 51°15.805 2°53.407 346.8 13.2 337 11.6
2004-10-26 07:02:23 51°15.819 2°53.398 346.3 13.3 337 11.6
2004-10-26 07:02:28 51°15.836 2°53.387 346.3 13.4 338 11.7
2004-10-26 07:02:34 51°15.856 2°53.373 346.8 13.4 338 11.8
2004-10-26 07:02:39 51°15.873 2°53.362 347.3 13.2 338 11.8
2004-10-26 07:02:42 51°15.883 2°53.355 347 13.2 337 11.8
2004-10-26 07:02:49 51°15.907 2°53.34 346.8 13.2 337 11.9
2004-10-26 07:02:54 51°15.924 2°53.328 346.4 13.3 337 11.9
2004-10-26 07:02:59 51°15.941 2°53.317 346.2 13.3 337 11.9
2004-10-26 07:03:02 51°15.951 2°53.31 346.4 13.3 337 12
2004-10-26 07:03:09 51°15.975 2°53.294 346.8 13.2 337 12
2004-10-26 07:03:11 51°15.981 2°53.289 346.6 13.2 337 12.1
2004-10-26 07:03:19 51°16.008 2°53.272 346.7 13.2 338 12.1
2004-10-26 07:03:23 51°16.022 2°53.263 346.9 13.2 338 12.2
2004-10-26 07:03:28 51°16.039 2°53.252 347.5 13.3 338 12.2
2004-10-26 07:03:34 51°16.06 2°53.239 347.5 13.3 338 12.3
2004-10-26 07:03:39 51°16.077 2°53.228 347.4 13.2 338 12.3
2004-10-26 07:03:44 51°16.094 2°53.217 347.4 13.2 338 12.3
2004-10-26 07:03:47 51°16.104 2°53.211 347.2 13.2 339 12.4
2004-10-26 07:03:54 51°16.128 2°53.196 347 13.2 338 12.3
2004-10-26 07:03:58 51°16.142 2°53.187 347 13.3 339 12.4
2004-10-26 07:04:08 51°16.176 2°53.166 347.2 13.2 339 12.5
2004-10-26 07:04:12 51°16.189 2°53.157 347.4 13.2 338 12.6
2004-10-26 07:04:18 51°16.21 2°53.145 347.1 13.2 338 12.5
2004-10-26 07:04:23 51°16.227 2°53.134 347 13.2 338 12.5
2004-10-26 07:04:28 51°16.244 2°53.123 346.8 13.2 339 12.6
2004-10-26 07:04:31 51°16.254 2°53.117 346.9 13.3 338 12.5
2004-10-26 07:04:38 51°16.278 2°53.102 347 13.3 339 12.6
2004-10-26 07:04:42 51°16.292 2°53.093 347.1 13.2 339 12.6
2004-10-26 07:04:48 51°16.312 2°53.08 346.8 13.3 338 12.5
2004-10-26 07:04:52 51°16.326 2°53.071 346.8 13.3 339 12.5
2004-10-26 07:04:56 51°16.34 2°53.062 346.6 13.3 338 12.6
2004-10-26 07:05:03 51°16.363 2°53.047 346.3 13.2 338 12.6
2004-10-26 07:05:06 51°16.374 2°53.04 346.2 13.2 338 12.6
2004-10-26 07:05:12 51°16.394 2°53.027 346.1 13.2 338 12.6
2004-10-26 07:05:16 51°16.407 2°53.018 345.8 13.2 337 12.6
2004-10-26 07:05:22 51°16.428 2°53.004 345.7 13.2 337 12.5
2004-10-26 07:05:27 51°16.445 2°52.993 345.7 13.3 338 12.6
2004-10-26 07:05:32 51°16.462 2°52.982 346 13.3 338 12.4
2004-10-26 07:05:36 51°16.475 2°52.974 346.1 13.2 338 12.4
2004-10-26 07:05:42 51°16.496 2°52.961 346.2 13.2 338 12.3
2004-10-26 07:05:48 51°16.516 2°52.948 346.2 13.2 339 12.2
2004-10-26 07:05:52 51°16.53 2°52.939 346.6 13.2 339 12.1
2004-10-26 07:05:55 51°16.54 2°52.933 346.6 13.2 339 11.9
2004-10-26 07:06:02 51°16.564 2°52.918 346.8 13.2 338 12
2004-10-26 07:06:08 51°16.584 2°52.905 346.4 13.1 339 11.8
2004-10-26 07:06:11 51°16.594 2°52.899 346.6 13.1 339 11.8
2004-10-26 07:06:18 51°16.618 2°52.884 346.7 13.1 338 11.7
2004-10-26 07:06:23 51°16.635 2°52.873 346.7 13.2 338 11.7
2004-10-26 07:06:28 51°16.652 2°52.862 346.5 13.1 339 11.5
2004-10-26 07:06:32 51°16.666 2°52.854 346.3 13.2 339 11.4
2004-10-26 07:06:38 51°16.686 2°52.841 346.6 13.1 339 11.3
2004-10-26 07:06:43 51°16.703 2°52.831 346.7 13.1 339 11.1
2004-10-26 07:06:47 51°16.716 2°52.822 346.9 13 339 10.9
2004-10-26 07:06:53 51°16.737 2°52.81 347 13 339 10.8
2004-10-26 07:06:58 51°16.754 2°52.8 346.9 13 339 10.6
2004-10-26 07:07:08 51°16.787 2°52.779 347.2 12.9 339 9.7
2004-10-26 07:07:12 51°16.801 2°52.771 347.2 12.9 339 9.7
2004-10-26 07:07:18 51°16.821 2°52.759 347 12.9 339 9.7
2004-10-26 07:07:23 51°16.837 2°52.748 346.7 12.8 338 9.8
2004-10-26 07:07:28 51°16.854 2°52.737 346.4 12.9 338 9.6
2004-10-26 07:07:31 51°16.863 2°52.731 346.2 12.9 338 9.5
2004-10-26 07:07:38 51°16.887 2°52.716 345.9 12.8 338 9.4
2004-10-26 07:07:42 51°16.9 2°52.707 345.8 12.9 337 9.5
2004-10-26 07:07:48 51°16.92 2°52.694 345.3 12.9 337 9.5
2004-10-26 07:07:52 51°16.933 2°52.685 345.5 12.9 338 9.7
2004-10-26 07:07:58 51°16.953 2°52.672 345.8 12.9 337 9.7
2004-10-26 07:08:03 51°16.97 2°52.661 346.2 13 338 10
2004-10-26 07:08:08 51°16.986 2°52.65 346 13.1 337 10.3
2004-10-26 07:08:12 51°17 2°52.641 345.8 13.1 337 10.4
2004-10-26 07:08:18 51°17.02 2°52.628 345.5 13.1 337 10.2
2004-10-26 07:08:23 51°17.037 2°52.616 345.8 13.1 338 10
2004-10-26 07:08:27 51°17.05 2°52.608 346 13.1 337 9.9
2004-10-26 07:08:31 51°17.063 2°52.599 346 13 338 9.8
2004-10-26 07:08:38 51°17.087 2°52.583 346 13 338 9.8
2004-10-26 07:08:43 51°17.103 2°52.573 346.3 12.9 338 9.6
2004-10-26 07:08:48 51°17.12 2°52.562 346.6 12.9 338 9.8
2004-10-26 07:08:52 51°17.133 2°52.554 346.8 13 338 9.9
2004-10-26 07:08:55 51°17.143 2°52.547 346.9 13 338 9.8
2004-10-26 07:09:03 51°17.17 2°52.53 346.8 13 338 10
2004-10-26 07:09:08 51°17.187 2°52.519 346.6 13 338 9.9
2004-10-26 07:09:12 51°17.2 2°52.51 346.4 13.1 338 10
2004-10-26 07:09:16 51°17.214 2°52.501 346.5 13.1 338 10
2004-10-26 07:09:22 51°17.234 2°52.488 346.2 13.1 338 10.2
2004-10-26 07:09:28 51°17.254 2°52.475 346.5 13.1 338 10.3
2004-10-26 07:09:32 51°17.267 2°52.466 346.5 13.1 338 10.2
2004-10-26 07:09:35 51°17.277 2°52.46 346.6 13.1 338 10.3
2004-10-26 07:09:42 51°17.301 2°52.445 346.9 13.1 338 10.3
2004-10-26 07:09:48 51°17.321 2°52.431 346.9 13.1 337 10.4
2004-10-26 07:09:51 51°17.331 2°52.425 346.5 13.1 337 10.6
2004-10-26 07:09:58 51°17.354 2°52.409 346.3 13.1 337 10.5
2004-10-26 07:10:03 51°17.371 2°52.397 346.1 13.1 337 10.6
2004-10-26 07:10:08 51°17.388 2°52.386 345.5 13.1 336 10.5
2004-10-26 07:10:12 51°17.401 2°52.377 345.3 13 337 10.6
2004-10-26 07:10:16 51°17.414 2°52.367 345.6 13 337 10.6
2004-10-26 07:10:23 51°17.438 2°52.351 345.6 13.1 337 10.7
2004-10-26 07:10:26 51°17.448 2°52.345 345.9 13 337 10.6
2004-10-26 07:10:32 51°17.468 2°52.332 346.2 13 338 10.8
2004-10-26 07:10:38 51°17.488 2°52.32 346.4 12.9 340 10.7
2004-10-26 07:10:43 51°17.505 2°52.314 350.5 12.8 348 10.6
2004-10-26 07:10:48 51°17.523 2°52.31 355 12.7 350 10.7
2004-10-26 07:10:52 51°17.537 2°52.308 359.2 12.6 354 10.6
2004-10-26 07:10:56 51°17.551 2°52.306 2.2 12.6 355 10.6
2004-10-26 07:11:02 51°17.572 2°52.305 4.2 12.6 358 10.6
2004-10-26 07:11:08 51°17.593 2°52.304 5.8 12.7 359 10.7
2004-10-26 07:11:12 51°17.607 2°52.304 6.5 12.7   10.7
2004-10-26 07:11:18 51°17.628 2°52.304 6.9 12.7 359 10.7
2004-10-26 07:11:23 51°17.646 2°52.303 7.5 12.7 359 10.7
2004-10-26 07:11:28 51°17.663 2°52.303 7.2 12.7 359 10.6
2004-10-26 07:11:32 51°17.677 2°52.303 7.1 12.7 359 10.5
2004-10-26 07:11:38 51°17.699 2°52.302 6.8 12.7 358 10.6
2004-10-26 07:11:42 51°17.713 2°52.301 6.4 12.7 358 10.7
2004-10-26 07:11:47 51°17.73 2°52.3 6.1 12.7 358 10.6
2004-10-26 07:11:52 51°17.748 2°52.299 6.3 12.7 359 10.7
2004-10-26 07:11:56 51°17.762 2°52.299 6.4 12.7 358 10.7
2004-10-26 07:12:02 51°17.783 2°52.298 7.2 12.8 359 10.9
2004-10-26 07:12:08 51°17.805 2°52.297 7 12.8 358 10.5
2004-10-26 07:12:12 51°17.819 2°52.298 7 12.7 359 10.8
2004-10-26 07:12:16 51°17.833 2°52.297 7 12.8 359 10.5
2004-10-26 07:12:23 51°17.857 2°52.297 7.2 12.7 1 10.8
2004-10-26 07:12:28 51°17.875 2°52.299 8.8 12.7 3 10.8
2004-10-26 07:12:32 51°17.889 2°52.302 11.6 12.7 6 10.8
2004-10-26 07:12:38 51°17.91 2°52.306 13 12.7 5 10.9
2004-10-26 07:12:43 51°17.927 2°52.31 14.9 12.6 9 10.7
2004-10-26 07:12:48 51°17.945 2°52.314 16 12.7 8 10.8
2004-10-26 07:12:53 51°17.962 2°52.32 16.9 12.6 11 10.7
2004-10-26 07:12:58 51°17.979 2°52.325 17.5 12.7 10 10.9
2004-10-26 07:13:02 51°17.993 2°52.329 17.1 12.7 10 10.7
2004-10-26 07:13:08 51°18.014 2°52.334 17 12.8 10 10.9
2004-10-26 07:13:12 51°18.028 2°52.338 17.3 12.8 10 10.6
2004-10-26 07:13:16 51°18.042 2°52.342 17.3 12.9 10 10.7
2004-10-26 07:13:23 51°18.066 2°52.35 18 12.9 10 10.9
2004-10-26 07:13:26 51°18.077 2°52.352 17.4 12.9 9 11
2004-10-26 07:13:30 51°18.091 2°52.356 16.6 12.9 9 11.1
2004-10-26 07:13:40 51°18.126 2°52.365 17.4 12.9 9 10.8
2004-10-26 07:13:45 51°18.144 2°52.369 16.8 12.9 8 10.9
2004-10-26 07:13:50 51°18.162 2°52.374 15.9 12.8 8 11
2004-10-26 07:13:55 51°18.179 2°52.378 16.1 12.8 8 10.9
2004-10-26 07:14:00 51°18.197 2°52.383 15.9 12.8 8 11.2
2004-10-26 07:14:04 51°18.211 2°52.386 16.7 12.8 10 11
2004-10-26 07:14:10 51°18.232 2°52.392 17.2 12.8 9 11
2004-10-26 07:14:15 51°18.249 2°52.396 16.8 12.8 9 11
2004-10-26 07:14:20 51°18.267 2°52.4 16.6 12.8 8 11.2
2004-10-26 07:14:24 51°18.281 2°52.404 16 12.8 9 11.3
2004-10-26 07:14:30 51°18.302 2°52.409 16.2 12.8 9 11.4
2004-10-26 07:14:40 51°18.337 2°52.418 16.8 12.7 10 11.2
2004-10-26 07:14:45 51°18.354 2°52.422 17.4 12.8 9 11.4
2004-10-26 07:14:50 51°18.372 2°52.427 16.6 12.8 9 11.4
2004-10-26 07:14:55 51°18.39 2°52.431 16.2 12.8 9 11.3
2004-10-26 07:15:00 51°18.407 2°52.435 16.6 12.8 9 11.5
2004-10-26 07:15:04 51°18.421 2°52.439 16.4 12.7 9 11.5
2004-10-26 07:15:10 51°18.442 2°52.443 16.1 12.8 8 11.5
2004-10-26 07:15:15 51°18.46 2°52.448 16.1 12.8 9 11.5
2004-10-26 07:15:20 51°18.477 2°52.452 16.9 12.8 9 11.5
2004-10-26 07:15:25 51°18.495 2°52.456 16.6 12.8 8 11.6
2004-10-26 07:15:30 51°18.513 2°52.46 15.8 12.8 8 11.7
2004-10-26 07:15:35 51°18.53 2°52.464 15.8 12.9 8 11.7
2004-10-26 07:15:39 51°18.545 2°52.468 15.9 12.9 9 11.7
2004-10-26 07:15:43 51°18.559 2°52.472 16.6 12.9 11 11.8
2004-10-26 07:15:50 51°18.583 2°52.481 18.5 12.9 11 11.8
2004-10-26 07:15:54 51°18.597 2°52.485 20 12.8 13 12
2004-10-26 07:15:59 51°18.614 2°52.494 21.9 12.8 17 12
2004-10-26 07:16:04 51°18.631 2°52.501 23 12.7 15 11.9
2004-10-26 07:16:10 51°18.651 2°52.512 23.7 12.8 17 11.9
2004-10-26 07:16:15 51°18.668 2°52.52 24.5 12.8 17 12.2
2004-10-26 07:16:19 51°18.681 2°52.527 24.6 12.7 19 11.9
2004-10-26 07:16:24 51°18.698 2°52.535 24.9 12.7 17 12
2004-10-26 07:16:30 51°18.718 2°52.545 24.6 12.6 18 12.2
2004-10-26 07:16:34 51°18.732 2°52.552 23.9 12.6 17 12.1
2004-10-26 07:16:38 51°18.745 2°52.559 24.4 12.7 17 12.2
2004-10-26 07:16:43 51°18.762 2°52.566 24.2 12.8 15 12.4
2004-10-26 07:16:50 51°18.785 2°52.578 24 12.8 15 12.3
2004-10-26 07:16:55 51°18.802 2°52.586 24.2 12.6 17 12.4
2004-10-26 07:16:59 51°18.815 2°52.593 24 12.6 18 12.5
2004-10-26 07:17:04 51°18.832 2°52.601 24.5 12.6 18 12.4
2004-10-26 07:17:10 51°18.852 2°52.612 25.3 12.7 18 12.5
2004-10-26 07:17:15 51°18.868 2°52.622 26.1 12.6 22 12.5
2004-10-26 07:17:20 51°18.885 2°52.632 27.5 12.6 22 12.6
2004-10-26 07:17:24 51°18.897 2°52.641 28.8 12.6 23 12.6
2004-10-26 07:17:30 51°18.917 2°52.654 30 12.8 22 12.7
2004-10-26 07:17:35 51°18.933 2°52.665 29.7 12.6 22 12.6
2004-10-26 07:17:40 51°18.949 2°52.676 29.4 12.6 24 12.8
2004-10-26 07:17:44 51°18.962 2°52.684 29.3 12.7 21 12.7
2004-10-26 07:17:49 51°18.978 2°52.695 29.7 12.7 24 12.9
2004-10-26 07:17:55 51°18.998 2°52.708 29.1 12.7 23 12.9
2004-10-26 07:18:00 51°19.014 2°52.719 29.7 12.7 24 13
2004-10-26 07:18:04 51°19.027 2°52.728 30.4 12.7 23 13
2004-10-26 07:18:09 51°19.043 2°52.739 30.1 12.7 22 13.1
2004-10-26 07:18:15 51°19.063 2°52.752 30.1 12.8 22 13.2
2004-10-26 07:18:19 51°19.076 2°52.761 29.2 12.8 23 13.2
2004-10-26 07:18:24 51°19.092 2°52.771 29.3 12.8 23 13.2
2004-10-26 07:18:30 51°19.112 2°52.784 29.1 12.7 23 13.3
2004-10-26 07:18:35 51°19.128 2°52.794 29.7 12.7 23 13.2
2004-10-26 07:18:40 51°19.145 2°52.806 29 12.7 23 13.3
2004-10-26 07:18:43 51°19.154 2°52.812 29.7 12.7 23 13.3
2004-10-26 07:18:50 51°19.177 2°52.828 29.5 12.7 23 13.4
2004-10-26 07:18:54 51°19.19 2°52.836 29.7 12.6 23 13.4
2004-10-26 07:18:59 51°19.206 2°52.847 29.7 12.7 22 13.5
2004-10-26 07:19:04 51°19.223 2°52.857 29 12.7 22 13.6
2004-10-26 07:19:10 51°19.242 2°52.87 29.7 12.7 24 13.6
2004-10-26 07:19:15 51°19.258 2°52.882 29.6 12.8 24 13.7
2004-10-26 07:19:20 51°19.274 2°52.893 30.2 12.8 24 13.8
2004-10-26 07:19:23 51°19.284 2°52.9 30.8 12.9 23 13.7
2004-10-26 07:19:30 51°19.307 2°52.915 30.2 12.9 23 14
2004-10-26 07:19:35 51°19.323 2°52.927 29.5 12.8 24 13.8
2004-10-26 07:19:40 51°19.34 2°52.937 30.1 12.9 22 14
2004-10-26 07:19:42 51°19.347 2°52.941 29.3 12.9 23 14
2004-10-26 07:19:50 51°19.373 2°52.959 29 12.9 22 14.1
2004-10-26 07:19:54 51°19.387 2°52.968 29.4 12.9 23 14
2004-10-26 07:20:00 51°19.406 2°52.981 29.8 12.9 23 14.2
2004-10-26 07:20:04 51°19.419 2°52.99 30.1 12.9 23 14.3
2004-10-26 07:20:10 51°19.44 2°53.003 30.2 13 23 14.3
2004-10-26 07:20:15 51°19.456 2°53.014 29.2 13 21 14.4
2004-10-26 07:20:20 51°19.473 2°53.025 30 12.9 23 14.3
2004-10-26 07:20:24 51°19.486 2°53.034 29.8 13 23 14.4
2004-10-26 07:20:30 51°19.506 2°53.047 29.8 13 22 14.4
2004-10-26 07:20:35 51°19.522 2°53.059 29.6 12.9 24 14.4
2004-10-26 07:20:40 51°19.539 2°53.07 30.5 12.9 22 14.5
2004-10-26 07:20:44 51°19.552 2°53.079 29.7 12.9 23 14.4
2004-10-26 07:20:49 51°19.569 2°53.09 30.4 13 23 14.5
2004-10-26 07:20:55 51°19.588 2°53.104 30.3 13 23 14.6
2004-10-26 07:20:58 51°19.598 2°53.11 29.9 12.9 22 14.7
2004-10-26 07:21:03 51°19.615 2°53.122 30 12.9 24 15
2004-10-26 07:21:10 51°19.638 2°53.137 30.8 12.9 23 15
2004-10-26 07:21:14 51°19.651 2°53.146 30.9 13 21 15
2004-10-26 07:21:19 51°19.668 2°53.157 29.5 12.9 24 14.9
2004-10-26 07:21:24 51°19.684 2°53.168 30 12.9 22 15
2004-10-26 07:21:30 51°19.704 2°53.182 29.6 12.8 24 15.1
2004-10-26 07:21:35 51°19.72 2°53.192 30.2 12.8 22 15
2004-10-26 07:21:40 51°19.737 2°53.202 30 12.8 22 15
2004-10-26 07:21:45 51°19.753 2°53.213 29.2 12.8 22 15.1
2004-10-26 07:21:50 51°19.769 2°53.224 29.7 12.8 24 15.2
2004-10-26 07:21:55 51°19.785 2°53.237 31.1 12.8 25 15.4
2004-10-26 07:22:00 51°19.801 2°53.248 31.1 12.9 24 15.5
2004-10-26 07:22:04 51°19.814 2°53.258 32 12.7 25 15.4
2004-10-26 07:22:10 51°19.833 2°53.272 33.3 12.8 25 15.3
2004-10-26 07:22:14 51°19.846 2°53.282 32.3 12.7 27 15.5
2004-10-26 07:22:20 51°19.865 2°53.298 33.9 12.8 27 15.5
2004-10-26 07:22:24 51°19.878 2°53.307 33.2 12.9 23 15.4
2004-10-26 07:22:30 51°19.896 2°53.323 33.1 12.8 27 15.7
2004-10-26 07:22:40 51°19.929 2°53.346 32.7 12.8 26 15.7
2004-10-26 07:22:45 51°19.945 2°53.358 32.6 12.8 24 15.7
2004-10-26 07:22:50 51°19.961 2°53.37 31.9 12.8 24 15.9
2004-10-26 07:22:55 51°19.977 2°53.381 32 12.8 23 15.9
2004-10-26 07:23:00 51°19.993 2°53.394 32.1 12.7 24 15.9
2004-10-26 07:23:04 51°20.006 2°53.403 33.1 12.8 25 15.9
2004-10-26 07:23:10 51°20.025 2°53.418 32.8 12.8 25 15.9
2004-10-26 07:23:14 51°20.038 2°53.427 32.6 12.8 23 16.1
2004-10-26 07:23:20 51°20.057 2°53.442 31.8 12.7 27 16
2004-10-26 07:23:24 51°20.07 2°53.451 33.1 12.8 25 16.2
2004-10-26 07:23:30 51°20.089 2°53.466 31.9 12.8 23 16.1
2004-10-26 07:23:39 51°20.118 2°53.487 32.6 12.6 24 16.3
2004-10-26 07:23:43 51°20.13 2°53.497 32.4 12.7 26 16.3
2004-10-26 07:23:49 51°20.15 2°53.51 32.5 12.8 24 16.3
2004-10-26 07:23:55 51°20.169 2°53.524 32.1 12.7 25 16.3
2004-10-26 07:24:00 51°20.185 2°53.536 32.1 12.7 24 16.4
2004-10-26 07:24:04 51°20.197 2°53.545 31.8 12.6 24 16.3
2004-10-26 07:24:10 51°20.217 2°53.559 32 12.6 25 16.5
2004-10-26 07:24:15 51°20.233 2°53.571 32.6 12.7 25 16.5
2004-10-26 07:24:19 51°20.245 2°53.58 32.6 12.6 24 16.6
2004-10-26 07:24:23 51°20.258 2°53.59 32.6 12.6 26 16.7
2004-10-26 07:24:30 51°20.28 2°53.606 32.1 12.7 24 16.7
2004-10-26 07:24:34 51°20.293 2°53.616 32.2 12.7 25 16.7
2004-10-26 07:24:40 51°20.312 2°53.63 32.4 12.7 24 16.6
2004-10-26 07:24:44 51°20.325 2°53.64 32.6 12.6 26 16.7
2004-10-26 07:24:50 51°20.344 2°53.654 33.2 12.7 25 16.7
2004-10-26 07:24:54 51°20.356 2°53.664 33.2 12.7 26 16.6
2004-10-26 07:25:00 51°20.375 2°53.678 32.9 12.6 25 16.6
2004-10-26 07:25:03 51°20.385 2°53.685 32.5 12.6 25 16.7
2004-10-26 07:25:10 51°20.407 2°53.701 32.8 12.6 25 16.7
2004-10-26 07:25:19 51°20.436 2°53.723 32.6 12.6 24 16.7
2004-10-26 07:25:23 51°20.448 2°53.733 32.4 12.5 26 16.9
2004-10-26 07:25:30 51°20.47 2°53.75 33.8 12.7 27 16.8
2004-10-26 07:25:35 51°20.486 2°53.762 32.5 12.7 25 17
2004-10-26 07:25:38 51°20.496 2°53.769 32.6 12.6 26 16.9
2004-10-26 07:25:42 51°20.509 2°53.778 32.8 12.7 24 16.9
2004-10-26 07:25:51 51°20.537 2°53.799 31.2 12.6 24 16.8
2004-10-26 07:25:56 51°20.553 2°53.811 32.5 12.7 25 16.9
2004-10-26 07:26:08 51°20.592 2°53.84 32.5 12.8 26 17
2004-10-26 07:26:13 51°20.608 2°53.852 32.2 12.8 25 17
2004-10-26 07:26:18 51°20.624 2°53.864 32.8 12.8 26 17
2004-10-26 07:26:23 51°20.64 2°53.876 32.5 12.8 25 17
2004-10-26 07:26:28 51°20.656 2°53.888 32.7 12.8 25 17.1
2004-10-26 07:26:31 51°20.666 2°53.894 32.2 12.8 23 17
2004-10-26 07:26:38 51°20.688 2°53.91 31.9 12.8 25 17.1
2004-10-26 07:26:42 51°20.701 2°53.92 31.4 12.8 24 17.1
2004-10-26 07:26:48 51°20.721 2°53.934 31.9 12.8 25 17.1
2004-10-26 07:26:52 51°20.733 2°53.943 31.5 12.7 24 17.1
2004-10-26 07:26:55 51°20.743 2°53.95 31.5 12.6 24 17
2004-10-26 07:27:02 51°20.765 2°53.967 32.2 12.6 25 17.2
2004-10-26 07:27:08 51°20.784 2°53.981 32.5 12.7 25 17.1
2004-10-26 07:27:12 51°20.797 2°53.99 32.5 12.7 24 17
2004-10-26 07:27:18 51°20.817 2°54.004 32.5 12.6 25 17
2004-10-26 07:27:23 51°20.832 2°54.016 32.9 12.7 25 17.1
2004-10-26 07:27:27 51°20.845 2°54.025 32.4 12.7 25 17.3
2004-10-26 07:27:32 51°20.861 2°54.037 32.5 12.8 25 17.1
2004-10-26 07:27:38 51°20.88 2°54.051 32.7 12.7 24 17.3
2004-10-26 07:27:43 51°20.896 2°54.064 32.4 12.8 27 17.3
2004-10-26 07:27:48 51°20.912 2°54.076 32.6 12.8 24 17.3
2004-10-26 07:27:51 51°20.922 2°54.083 32.2 12.8 25 17.3
2004-10-26 07:27:58 51°20.945 2°54.1 32.9 12.8 25 17.4
2004-10-26 07:28:03 51°20.961 2°54.111 32.4 12.9 23 17.3
2004-10-26 07:28:07 51°20.974 2°54.121 31.6 12.9 25 17.2
2004-10-26 07:28:13 51°20.994 2°54.134 31.6 12.9 23 17.1
2004-10-26 07:28:18 51°21.01 2°54.147 32 12.9 25 17.3
2004-10-26 07:28:23 51°21.025 2°54.161 33.2 12.8 29 17.2
2004-10-26 07:28:28 51°21.041 2°54.174 35.3 12.8 29 17.2
2004-10-26 07:28:29 51°21.044 2°54.177 35.5 12.8 29 17.4
2004-10-26 07:28:38 51°21.071 2°54.202 36.3 12.8 30 17.3
2004-10-26 07:28:42 51°21.084 2°54.213 36.4 12.8 28 17.2
2004-10-26 07:28:48 51°21.102 2°54.23 35.9 12.8 30 17.3
2004-10-26 07:28:51 51°21.112 2°54.238 35.7 12.9 28 17.4
2004-10-26 07:28:58 51°21.134 2°54.257 35.6 12.9 29 17.4
2004-10-26 07:29:08 51°21.165 2°54.285 36.2 12.9 29 17.4
2004-10-26 07:29:12 51°21.178 2°54.296 36.6 12.9 29 17.3
2004-10-26 07:29:18 51°21.197 2°54.312 35.9 12.9 29 17.3
2004-10-26 07:29:23 51°21.212 2°54.327 36.3 12.8 32 17.4
2004-10-26 07:29:27 51°21.224 2°54.338 37 12.8 30 17.3
2004-10-26 07:29:32 51°21.238 2°54.355 39.1 12.8 35 17.5
2004-10-26 07:29:38 51°21.256 2°54.373 39.7 12.7 33 17.4
2004-10-26 07:29:43 51°21.271 2°54.389 39.6 12.8 34 17.6
2004-10-26 07:29:48 51°21.286 2°54.405 39.7 12.8 32 17.4
2004-10-26 07:29:51 51°21.295 2°54.415 40.6 13 35 17.6
2004-10-26 07:29:58 51°21.316 2°54.437 39.4 13 30 17.5
2004-10-26 07:30:08 51°21.346 2°54.466 39.2 12.8 31 17.5
2004-10-26 07:30:12 51°21.357 2°54.48 39.4 12.8 35 17.5
2004-10-26 07:30:18 51°21.375 2°54.498 40.5 12.8 35 17.6
2004-10-26 07:30:23 51°21.39 2°54.514 39.9 12.7 34 17.6
2004-10-26 07:30:27 51°21.402 2°54.526 39.9 12.7 33 17.5
2004-10-26 07:30:31 51°21.414 2°54.539 40.5 12.8 34 17.7
2004-10-26 07:30:38 51°21.435 2°54.56 39.9 12.8 32 17.6
2004-10-26 07:30:43 51°21.449 2°54.576 40 12.8 34 17.7
2004-10-26 07:30:47 51°21.461 2°54.588 40.4 12.9 33 17.6
2004-10-26 07:30:53 51°21.479 2°54.607 39.6 12.9 34 17.7
2004-10-26 07:30:58 51°21.494 2°54.623 40 12.9 33 17.5
2004-10-26 07:31:02 51°21.506 2°54.635 39.5 12.9 34 17.7
2004-10-26 07:31:08 51°21.524 2°54.655 39.7 13 34 17.7
2004-10-26 07:31:12 51°21.536 2°54.667 40 13 33 17.7
2004-10-26 07:31:18 51°21.554 2°54.686 38.7 13 32 17.7
2004-10-26 07:31:23 51°21.569 2°54.701 39.7 12.8 32 17.6
2004-10-26 07:31:27 51°21.581 2°54.714 39.3 12.8 32 17.5
2004-10-26 07:31:31 51°21.593 2°54.727 40.6 12.9 32 17.6
2004-10-26 07:31:38 51°21.614 2°54.748 39.4 12.9 31 17.5
2004-10-26 07:31:43 51°21.629 2°54.763 38.9 12.6 34 17.7
2004-10-26 07:31:47 51°21.64 2°54.777 40 12.8 36 17.8
2004-10-26 07:31:52 51°21.656 2°54.79 38.7 12.7 30 17.8
2004-10-26 07:31:58 51°21.673 2°54.81 39.4 12.8 35 17.8
2004-10-26 07:32:03 51°21.688 2°54.824 39 12.7 31 17.8
2004-10-26 07:32:08 51°21.703 2°54.841 38.3 12.7 35 17.8
2004-10-26 07:32:12 51°21.715 2°54.852 39.7 12.8 32 17.8
2004-10-26 07:32:18 51°21.733 2°54.871 38.4 12.8 32 17.8
2004-10-26 07:32:23 51°21.748 2°54.886 39.2 12.7 32 17.9
2004-10-26 07:32:28 51°21.762 2°54.901 39.1 12.7 32 17.8
2004-10-26 07:32:31 51°21.771 2°54.91 38.9 12.7 32 17.9
2004-10-26 07:32:38 51°21.792 2°54.932 39.2 12.7 33 17.7
2004-10-26 07:32:42 51°21.803 2°54.945 40.6 12.8 34 17.8
2004-10-26 07:32:48 51°21.821 2°54.963 40.4 12.8 32 18
2004-10-26 07:32:52 51°21.834 2°54.975 38.1 12.7 31 17.9
2004-10-26 07:32:58 51°21.852 2°54.991 37.5 12.7 30 17.9
2004-10-26 07:33:03 51°21.867 2°55.004 36 12.7 28 18
2004-10-26 07:33:08 51°21.883 2°55.018 34.6 12.7 28 18.1
2004-10-26 07:33:13 51°21.899 2°55.032 35.3 12.8 29 18.2
2004-10-26 07:33:18 51°21.915 2°55.044 34.9 12.9 27 18
2004-10-26 07:33:22 51°21.927 2°55.055 34.4 12.8 27 18
2004-10-26 07:33:27 51°21.943 2°55.068 33.9 12.9 28 18.2
2004-10-26 07:33:31 51°21.956 2°55.078 34.4 12.9 27 18
2004-10-26 07:33:38 51°21.978 2°55.097 34.5 13 28 18.1
2004-10-26 07:33:43 51°21.994 2°55.109 33.5 12.9 26 18.2
2004-10-26 07:33:48 51°22.01 2°55.122 33.6 12.9 27 18.2
2004-10-26 07:33:49 51°22.013 2°55.125 33.2 12.9 24 18.3
2004-10-26 07:33:58 51°22.042 2°55.147 32.6 12.8 26 18.3
2004-10-26 07:34:02 51°22.055 2°55.157 33.2 13 24 18.4
2004-10-26 07:34:08 51°22.074 2°55.172 32.4 12.9 26 18.5
2004-10-26 07:34:11 51°22.084 2°55.181 33.5 13 28 18.6
2004-10-26 07:34:18 51°22.107 2°55.198 33.3 13 25 18.8
2004-10-26 07:34:28 51°22.139 2°55.224 32.8 13 26 19
2004-10-26 07:34:33 51°22.155 2°55.237 33.3 13.1 27 18.8
2004-10-26 07:34:38 51°22.172 2°55.25 33.4 13.1 26 18.8
2004-10-26 07:34:43 51°22.188 2°55.262 33.1 13 26 18.8
2004-10-26 07:34:47 51°22.201 2°55.271 33.1 13 24 19
2004-10-26 07:34:51 51°22.214 2°55.281 31.4 12.9 23 19.3
2004-10-26 07:34:58 51°22.236 2°55.299 31.2 12.9 25 19.2
2004-10-26 07:35:02 51°22.249 2°55.309 34.4 13 26 19.4
2004-10-26 07:35:07 51°22.265 2°55.322 34.3 13 28 19.3
2004-10-26 07:35:12 51°22.281 2°55.335 34 13 25 19.5
2004-10-26 07:35:18 51°22.3 2°55.351 33.2 13 26 19.7
2004-10-26 07:35:23 51°22.317 2°55.363 33.3 13.1 26 19.8
2004-10-26 07:35:27 51°22.33 2°55.374 33.2 13.1 26 19.7
2004-10-26 07:35:32 51°22.346 2°55.386 32.6 13 25 19.4
2004-10-26 07:35:38 51°22.365 2°55.401 32.5 13 26 19.3
2004-10-26 07:35:47 51°22.394 2°55.424 32.6 12.9 27 18.9
2004-10-26 07:35:51 51°22.407 2°55.433 32.7 12.9 26 18.8
2004-10-26 07:35:56 51°22.423 2°55.447 33.3 12.9 28 18.8
2004-10-26 07:36:03 51°22.446 2°55.464 33.5 12.9 26 18.9
2004-10-26 07:36:08 51°22.461 2°55.478 33.5 12.9 26 18.7
2004-10-26 07:36:11 51°22.471 2°55.486 34.4 12.9 26 18.8
2004-10-26 07:36:18 51°22.493 2°55.503 32.5 12.9 24 18.9
2004-10-26 07:36:22 51°22.506 2°55.513 33.3 12.9 26 18.8
2004-10-26 07:36:28 51°22.526 2°55.528 33.2 12.9 25 18.7
2004-10-26 07:36:33 51°22.541 2°55.541 32.5 12.8 26 18.7
2004-10-26 07:36:38 51°22.557 2°55.554 33.4 12.8 27 19
2004-10-26 07:36:42 51°22.57 2°55.564 33.4 12.9 27 18.7
2004-10-26 07:36:48 51°22.589 2°55.58 33.5 12.9 28 18.8
2004-10-26 07:36:52 51°22.602 2°55.59 34.4 12.9 25 18.8
2004-10-26 07:36:58 51°22.621 2°55.605 33.4 12.9 26 18.7
2004-10-26 07:37:02 51°22.634 2°55.615 32.4 12.9 24 18.9
2004-10-26 07:37:08 51°22.654 2°55.629 31 12.9 25 18.8
2004-10-26 07:37:12 51°22.667 2°55.638 31.3 12.9 24 18.9
2004-10-26 07:37:18 51°22.686 2°55.652 31 12.9 23 18.9
2004-10-26 07:37:22 51°22.699 2°55.661 30.8 12.9 24 18.9
2004-10-26 07:37:27 51°22.716 2°55.672 30.7 12.9 22 18.9
2004-10-26 07:37:31 51°22.729 2°55.681 29.5 12.8 22 18.9
2004-10-26 07:37:38 51°22.752 2°55.696 30 12.8 23 18.9
2004-10-26 07:37:43 51°22.768 2°55.707 29.7 12.8 22 18.9
2004-10-26 07:37:48 51°22.785 2°55.718 29.7 12.8 24 19.1
2004-10-26 07:37:53 51°22.801 2°55.729 29.6 12.8 22 18.9
2004-10-26 07:37:58 51°22.817 2°55.741 30.3 12.8 25 18.9
2004-10-26 07:38:03 51°22.834 2°55.752 29.7 12.9 23 19.1
2004-10-26 07:38:08 51°22.85 2°55.764 30.6 12.9 27 19.1
2004-10-26 07:38:12 51°22.863 2°55.772 30.8 12.9 20 18.7
2004-10-26 07:38:18 51°22.882 2°55.787 30.5 12.9 26 19
2004-10-26 07:38:23 51°22.899 2°55.797 29.7 12.9 22 19.1
2004-10-26 07:38:27 51°22.912 2°55.807 30 12.9 22 19.2
2004-10-26 07:38:31 51°22.925 2°55.815 30.3 12.9 22 19.3
2004-10-26 07:38:38 51°22.948 2°55.831 29.6 12.8 23 19.3
2004-10-26 07:38:42 51°22.962 2°55.839 29 12.7 19 19.4
2004-10-26 07:38:48 51°22.981 2°55.853 28.5 12.7 25 19.4
2004-10-26 07:38:51 51°22.991 2°55.859 29.8 12.8 23 19.3
2004-10-26 07:38:58 51°23.013 2°55.875 29.6 12.8 23 19.5
2004-10-26 07:39:02 51°23.026 2°55.884 30.3 12.7 24 19.4
2004-10-26 07:39:07 51°23.042 2°55.896 30.9 12.8 25 19.5
2004-10-26 07:39:11 51°23.055 2°55.905 30.6 12.8 24 19.3
2004-10-26 07:39:18 51°23.078 2°55.922 30.7 12.8 26 19.4
2004-10-26 07:39:23 51°23.094 2°55.934 31.2 12.8 25 19.6
2004-10-26 07:39:26 51°23.103 2°55.941 30.5 12.8 23 19.7
2004-10-26 07:39:32 51°23.123 2°55.956 30.5 12.8 27 19.6
2004-10-26 07:39:38 51°23.142 2°55.968 31.2 12.8 24 19.7
2004-10-26 07:39:43 51°23.158 2°55.981 30.2 12.8 27 19.9
2004-10-26 07:39:48 51°23.174 2°55.991 30.2 12.7 22 19.8
2004-10-26 07:39:53 51°23.19 2°56.004 31 12.7 26 20.2
2004-10-26 07:39:58 51°23.206 2°56.016 30.8 12.7 24 20
2004-10-26 07:40:03 51°23.222 2°56.027 31.3 12.7 24 20
2004-10-26 07:40:08 51°23.238 2°56.039 30.4 12.6 24 20.1
2004-10-26 07:40:11 51°23.248 2°56.046 30.9 12.6 25 20.3
2004-10-26 07:40:18 51°23.27 2°56.062 31.2 12.7 25 20.4
2004-10-26 07:40:22 51°23.283 2°56.071 30.4 12.8 25 20.4
2004-10-26 07:40:27 51°23.299 2°56.083 30.7 12.8 25 20.4
2004-10-26 07:40:30 51°23.309 2°56.09 30.7 12.8 25 20.3
2004-10-26 07:40:38 51°23.335 2°56.11 31.2 12.8 25 20.3
2004-10-26 07:40:42 51°23.348 2°56.119 31.2 12.9 23 20.3
2004-10-26 07:40:48 51°23.368 2°56.132 29.7 12.9 23 20.2
2004-10-26 07:40:52 51°23.381 2°56.141 29.1 12.9 21 20.1
2004-10-26 07:40:58 51°23.401 2°56.154 28.5 12.9 22 20.1
2004-10-26 07:41:02 51°23.414 2°56.163 29.4 13 23 20
2004-10-26 07:41:08 51°23.434 2°56.177 30 12.9 24 20
2004-10-26 07:41:12 51°23.447 2°56.186 30 12.8 23 19.7
2004-10-26 07:41:18 51°23.466 2°56.201 30.4 12.8 24 19.6
2004-10-26 07:41:22 51°23.479 2°56.209 30.4 12.8 23 20
2004-10-26 07:41:28 51°23.498 2°56.223 29.8 12.8 24 19.6
2004-10-26 07:41:31 51°23.508 2°56.23 30.2 12.9 23 19
2004-10-26 07:41:38 51°23.531 2°56.246 29.4 12.9 24 18.3
2004-10-26 07:41:43 51°23.547 2°56.258 29.6 12.9 25 18.8
2004-10-26 07:41:47 51°23.561 2°56.267 30.3 12.9 22 18.7
2004-10-26 07:41:51 51°23.574 2°56.275 29.4 12.8 23 18.1
2004-10-26 07:41:58 51°23.596 2°56.292 29 12.8 22 17.2
2004-10-26 07:42:03 51°23.613 2°56.302 29.6 12.8 22 19.1
2004-10-26 07:42:07 51°23.625 2°56.312 29.2 12.8 25 18
2004-10-26 07:42:12 51°23.642 2°56.323 30.1 12.7 23 16.6
2004-10-26 07:42:17 51°23.657 2°56.336 30.4 12.7 27 19.4
2004-10-26 07:42:23 51°23.677 2°56.348 30.3 12.9 22 18.8
2004-10-26 07:42:27 51°23.69 2°56.358 29.6 12.8 25 18
2004-10-26 07:42:31 51°23.703 2°56.367 30.6 12.8 25 16.4
2004-10-26 07:42:38 51°23.726 2°56.383 30 12.8 24 13
2004-10-26 07:42:43 51°23.742 2°56.394 29.6 12.7 23 16.4
2004-10-26 07:42:48 51°23.759 2°56.405 28.6 12.6 22 17.1
2004-10-26 07:42:51 51°23.768 2°56.413 30.2 12.6 26 17
2004-10-26 07:42:58 51°23.791 2°56.429 29.9 12.8 24 15.5
2004-10-26 07:43:03 51°23.807 2°56.44 29.5 12.7 24 16.6
2004-10-26 07:43:08 51°23.823 2°56.451 30.2 12.7 25 17.7
2004-10-26 07:43:11 51°23.833 2°56.457 29 12.7 21 17.1
2004-10-26 07:43:18 51°23.856 2°56.473 29.2 12.6 24 15.2
2004-10-26 07:43:22 51°23.869 2°56.481 28.8 12.7 22 16.5
2004-10-26 07:43:28 51°23.888 2°56.494 28.6 12.5 23 17.1
2004-10-26 07:43:30 51°23.894 2°56.498 28.3 12.6 23 16.3
2004-10-26 07:43:38 51°23.921 2°56.515 28.4 12.7 23 15.1
2004-10-26 07:43:43 51°23.937 2°56.525 27 12.6 22 17
2004-10-26 07:43:48 51°23.954 2°56.535 27.9 12.6 22 17.1
2004-10-26 07:43:52 51°23.967 2°56.543 27.6 12.7 20 16.2
2004-10-26 07:43:58 51°23.986 2°56.555 27.5 12.7 21 15.9
2004-10-26 07:44:02 51°24 2°56.563 27.4 12.6 22 16.7
2004-10-26 07:44:08 51°24.019 2°56.575 28 12.6 21 14.8
2004-10-26 07:44:12 51°24.032 2°56.583 27 12.5 20 16.9
2004-10-26 07:44:18 51°24.051 2°56.596 28 12.5 20 15.8
2004-10-26 07:44:22 51°24.064 2°56.604 29.3 12.6 22 16.7
2004-10-26 07:44:28 51°24.083 2°56.618 29.3 12.5 24 17.2
2004-10-26 07:44:32 51°24.096 2°56.626 29.3 12.6 22 16.4
2004-10-26 07:44:38 51°24.116 2°56.639 28.6 12.7 23 15.8
2004-10-26 07:44:43 51°24.133 2°56.648 28.2 12.7 19 14.1
2004-10-26 07:44:47 51°24.145 2°56.657 27.8 12.7 19 15.8
2004-10-26 07:44:51 51°24.158 2°56.664 27.3 12.5 21 16.3
2004-10-26 07:44:56 51°24.174 2°56.674 27.9 12.5 21 15.3
2004-10-26 07:45:03 51°24.197 2°56.689 29 12.6 21 17.5
2004-10-26 07:45:08 51°24.213 2°56.699 28.4 12.6 21 17.2
2004-10-26 07:45:12 51°24.226 2°56.707 27.5 12.6 21 16
2004-10-26 07:45:18 51°24.246 2°56.718 28.3 12.6 21 15
2004-10-26 07:45:23 51°24.262 2°56.729 28.1 12.5 22 17.2
2004-10-26 07:45:27 51°24.275 2°56.736 28 12.5 22 18.5
2004-10-26 07:45:33 51°24.294 2°56.75 28.5 12.6 23 18.6
2004-10-26 07:45:38 51°24.311 2°56.76 29.3 12.6 23 18.4
2004-10-26 07:45:43 51°24.327 2°56.771 29.9 12.6 22 17.6
2004-10-26 07:45:48 51°24.343 2°56.781 29 12.5 21 16.3
2004-10-26 07:45:52 51°24.356 2°56.789 27.9 12.5 21 16
2004-10-26 07:45:58 51°24.376 2°56.8 28.1 12.6 21 17.6
2004-10-26 07:46:02 51°24.389 2°56.808 27.5 12.6 20 18.5
2004-10-26 07:46:08 51°24.409 2°56.82 27.6 12.6 21 18.6
2004-10-26 07:46:12 51°24.422 2°56.827 27.3 12.5 19 18.6
2004-10-26 07:46:18 51°24.441 2°56.839 27 12.5 19 18.7
2004-10-26 07:46:22 51°24.454 2°56.846 27.9 12.5 21 18.8
2004-10-26 07:46:27 51°24.47 2°56.856 28.3 12.6 21 19.1
2004-10-26 07:46:33 51°24.49 2°56.868 28 12.6 21 19.3
2004-10-26 07:46:38 51°24.506 2°56.878 28.2 12.5 21 19.6
2004-10-26 07:46:42 51°24.519 2°56.885 27.9 12.4 20 19.5
2004-10-26 07:46:48 51°24.538 2°56.898 28 12.4 22 19.7
2004-10-26 07:46:52 51°24.551 2°56.905 29.1 12.4 22 19.9
2004-10-26 07:46:58 51°24.571 2°56.917 28.3 12.4 20 20.1
2004-10-26 07:47:03 51°24.587 2°56.925 27.9 12.4 18 20.1
2004-10-26 07:47:08 51°24.603 2°56.935 27.2 12.4 20 20.3
2004-10-26 07:47:11 51°24.613 2°56.941 27.5 12.4 21 20.5
2004-10-26 07:47:18 51°24.635 2°56.956 28.2 12.3 20 20.6
2004-10-26 07:47:22 51°24.648 2°56.963 29.6 12.4 21 20.8
2004-10-26 07:47:28 51°24.667 2°56.977 29.2 12.4 24 21
2004-10-26 07:47:32 51°24.679 2°56.986 30.5 12.4 25 21.3
2004-10-26 07:47:38 51°24.699 2°56.999 30.9 12.5 23 21.5
2004-10-26 07:47:43 51°24.714 2°57.01 31.1 12.5 24 21.6
2004-10-26 07:47:48 51°24.73 2°57.021 30.8 12.5 23 21.7
2004-10-26 07:47:53 51°24.746 2°57.034 30.5 12.4 25 21.7
2004-10-26 07:47:58 51°24.762 2°57.045 31.2 12.5 24 21.9
2004-10-26 07:48:03 51°24.777 2°57.057 31.6 12.4 26 21.9
2004-10-26 07:48:06 51°24.787 2°57.064 31.7 12.4 24 22.1
2004-10-26 07:48:12 51°24.805 2°57.078 31.4 12.4 25 22.3
2004-10-26 07:48:18 51°24.824 2°57.092 32.6 12.5 24 22.4
2004-10-26 07:48:23 51°24.84 2°57.104 31.3 12.5 27 22.4
2004-10-26 07:48:28 51°24.856 2°57.116 32 12.5 25 22.8
2004-10-26 07:48:32 51°24.868 2°57.125 31.2 12.5 24 22.6
2004-10-26 07:48:38 51°24.887 2°57.139 31.7 12.5 26 22.7
2004-10-26 07:48:43 51°24.903 2°57.151 31.7 12.6 25 22.8
2004-10-26 07:48:48 51°24.919 2°57.162 31.1 12.7 24 23.1
2004-10-26 07:48:52 51°24.932 2°57.172 31.1 12.7 24 23
2004-10-26 07:48:57 51°24.947 2°57.184 31.9 12.7 27 23.2
2004-10-26 07:49:03 51°24.967 2°57.198 31.6 12.7 24 23.3
2004-10-26 07:49:07 51°24.979 2°57.208 31.9 12.6 27 23.5
2004-10-26 07:49:11 51°24.992 2°57.217 31.5 12.6 25 23.6
2004-10-26 07:49:18 51°25.014 2°57.233 31.5 12.6 25 23.7
2004-10-26 07:49:23 51°25.03 2°57.245 30.7 12.6 26 23.9
2004-10-26 07:49:28 51°25.046 2°57.255 30.2 12.6 21 23.9
2004-10-26 07:49:32 51°25.058 2°57.266 30.7 12.6 25 24
2004-10-26 07:49:38 51°25.077 2°57.279 30 12.6 23 24.1
2004-10-26 07:49:42 51°25.09 2°57.289 32 12.6 25 24.2
2004-10-26 07:49:48 51°25.109 2°57.303 32.1 12.6 26 24.2
2004-10-26 07:49:53 51°25.125 2°57.315 31.6 12.6 25 24.4
2004-10-26 07:49:55 51°25.131 2°57.32 32 12.6 26 24.6
2004-10-26 07:50:03 51°25.157 2°57.34 31.1 12.7 26 24.7
2004-10-26 07:50:08 51°25.172 2°57.352 31.9 12.7 26 24.8
2004-10-26 07:50:11 51°25.182 2°57.36 32.6 12.8 27 24.9
2004-10-26 07:50:18 51°25.204 2°57.376 31.7 12.7 25 25
2004-10-26 07:50:23 51°25.22 2°57.389 31.2 12.8 27 25.1
2004-10-26 07:50:28 51°25.236 2°57.399 31.2 12.7 23 25.1
2004-10-26 07:50:31 51°25.246 2°57.407 30.4 12.6 25 25.3
2004-10-26 07:50:36 51°25.261 2°57.42 32.6 12.7 28 25.3
2004-10-26 07:50:42 51°25.281 2°57.434 31.2 12.8 27 25.5
2004-10-26 07:50:48 51°25.299 2°57.449 32.2 12.7 28 25.7
2004-10-26 07:50:51 51°25.309 2°57.455 31 12.7 23 25.7
2004-10-26 07:50:58 51°25.331 2°57.474 31.8 12.7 28 25.6
2004-10-26 07:51:03 51°25.348 2°57.486 31.4 12.8 26 25.6
2004-10-26 07:51:08 51°25.364 2°57.498 31.9 12.8 27 25.8
2004-10-26 07:51:10 51°25.37 2°57.502 30.3 12.8 24 25.6
2004-10-26 07:51:18 51°25.396 2°57.521 30.2 12.8 25 25.7
2004-10-26 07:51:23 51°25.412 2°57.534 31.3 12.8 27 25.6
2004-10-26 07:51:26 51°25.421 2°57.542 32.2 12.8 27 25.7
2004-10-26 07:51:31 51°25.437 2°57.554 32.5 12.9 26 25.8
2004-10-26 07:51:38 51°25.46 2°57.571 31.9 12.9 26 25.7
2004-10-26 07:51:47 51°25.489 2°57.594 31.2 12.9 26 25.7
2004-10-26 07:51:51 51°25.501 2°57.604 31.4 12.8 26 25.5
2004-10-26 07:51:58 51°25.523 2°57.623 31.9 12.7 27 25.6
2004-10-26 07:52:02 51°25.536 2°57.632 33.1 12.8 24 25.4
2004-10-26 07:52:06 51°25.549 2°57.642 31.9 12.8 28 25.2
2004-10-26 07:52:10 51°25.561 2°57.653 31.7 12.8 24 25.1
2004-10-26 07:52:18 51°25.587 2°57.673 31.4 12.8 25 25
2004-10-26 07:52:22 51°25.6 2°57.682 32.2 12.9 22 25.3
2004-10-26 07:52:28 51°25.619 2°57.698 31.1 12.9 28 25.5
2004-10-26 07:52:32 51°25.632 2°57.707 31.4 12.9 25 25.6
2004-10-26 07:52:38 51°25.651 2°57.723 32.4 12.9 27 25.5
2004-10-26 07:52:43 51°25.667 2°57.735 32.4 12.8 25 25.6
2004-10-26 07:52:48 51°25.682 2°57.749 32 12.8 29 25.4
2004-10-26 07:52:51 51°25.692 2°57.756 32.3 13 25 25.3
2004-10-26 07:52:58 51°25.715 2°57.773 31.6 12.9 25 25.2
2004-10-26 07:53:03 51°25.731 2°57.786 32.2 12.8 26 25.4
2004-10-26 07:53:07 51°25.743 2°57.795 30.8 12.8 25 25.3
2004-10-26 07:53:11 51°25.756 2°57.806 31.2 12.8 27 25
2004-10-26 07:53:18 51°25.779 2°57.824 32.6 12.8 28 25.4
2004-10-26 07:53:22 51°25.791 2°57.834 31.9 12.9 27 25
2004-10-26 07:53:28 51°25.81 2°57.849 31.7 12.9 27 24.9
2004-10-26 07:53:32 51°25.824 2°57.86 32 13 26 24.8
2004-10-26 07:53:38 51°25.843 2°57.875 31.9 13 27 24.6
2004-10-26 07:53:43 51°25.859 2°57.887 30.7 13 25 24.5
2004-10-26 07:53:48 51°25.875 2°57.901 31.2 13 28 24.3
2004-10-26 07:53:53 51°25.892 2°57.913 31.5 13.1 25 24.2
2004-10-26 07:53:58 51°25.908 2°57.925 30.6 13 25 24
2004-10-26 07:54:03 51°25.924 2°57.939 30.6 13.1 27 24
2004-10-26 07:54:08 51°25.941 2°57.95 30.7 13.1 24 23.8
2004-10-26 07:54:12 51°25.954 2°57.961 31.8 13.1 28 23.7
2004-10-26 07:54:18 51°25.974 2°57.975 29.7 13.1 22 23.7
2004-10-26 07:54:22 51°25.986 2°57.986 30.6 12.9 27 23.6
2004-10-26 07:54:27 51°26.003 2°57.997 31.2 12.9 25 23.5
2004-10-26 07:54:31 51°26.015 2°58.008 31.7 12.7 26 23.1
2004-10-26 07:54:38 51°26.038 2°58.025 31.9 12.8 26 22.1
2004-10-26 07:54:43 51°26.054 2°58.037 31.2 12.7 25 22.7
2004-10-26 07:54:48 51°26.07 2°58.049 30.6 12.7 26 23
2004-10-26 07:54:49 51°26.073 2°58.052 31 12.7 28 22.9
2004-10-26 07:54:58 51°26.101 2°58.075 31.9 12.8 28 23
2004-10-26 07:55:02 51°26.114 2°58.085 31.6 12.7 27 22.7
2004-10-26 07:55:08 51°26.132 2°58.101 31.9 12.8 28 21.1
2004-10-26 07:55:12 51°26.145 2°58.111 32.1 12.7 27 21
2004-10-26 07:55:18 51°26.164 2°58.127 32.2 12.7 27 21.8
2004-10-26 07:55:23 51°26.18 2°58.139 31.9 12.8 25 21.9
2004-10-26 07:55:28 51°26.196 2°58.152 31.2 12.9 26 21.7
2004-10-26 07:55:31 51°26.206 2°58.158 30.2 12.9 26 21.7